Time;durP1;ratioP1;P1;durP2;ratioP2;P2;SDS_P1;SDS_P2;PMS_P1;PMS_P2;Temp;Humidity;BMP_temperature;BMP_pressure;BME280_temperature;BME280_humidity;BME280_pressure;Samples;Min_cycle;Max_cycle;Signal;HPM_P1;HPM_P2
2024/02/28 00:00:22;;;;;;;22.60;14.40;;;;;;;10.25;49.70;95291.38;5010130;28;20040;-77
2024/02/28 00:02:47;;;;;;;23.30;13.52;;;;;;;10.21;49.90;95296.16;5010274;28;20096;-78
2024/02/28 00:05:13;;;;;;;22.30;12.70;;;;;;;10.18;50.33;95294.25;5010076;28;20105;-78
2024/02/28 00:07:38;;;;;;;25.60;14.07;;;;;;;10.15;50.41;95297.88;5010348;28;20068;-77
2024/02/28 00:10:04;;;;;;;25.48;13.43;;;;;;;10.00;50.78;95294.63;5010109;28;20068;-77
2024/02/28 00:12:29;;;;;;;24.05;13.10;;;;;;;9.94;50.71;95299.06;5008465;28;20100;-77
2024/02/28 00:14:55;;;;;;;25.30;14.73;;;;;;;9.98;50.46;95299.00;5010590;28;20025;-76
2024/02/28 00:17:20;;;;;;;20.35;12.60;;;;;;;9.90;50.60;95294.84;5009732;28;20026;-78
2024/02/28 00:19:46;;;;;;;20.92;11.18;;;;;;;9.91;50.41;95299.13;5010256;28;20057;-78
2024/02/28 00:22:11;;;;;;;19.73;12.50;;;;;;;9.95;50.13;95300.63;5009750;28;20062;-78
2024/02/28 00:24:36;;;;;;;18.73;12.07;;;;;;;9.92;50.10;95300.69;5009544;28;20053;-77
2024/02/28 00:27:02;;;;;;;23.25;11.55;;;;;;;9.89;50.06;95296.06;5010266;28;20026;-78
2024/02/28 00:29:27;;;;;;;21.23;12.80;;;;;;;9.84;50.29;95300.06;5009066;28;20087;-79
2024/02/28 00:31:52;;;;;;;18.42;11.30;;;;;;;9.75;50.40;95297.91;5010203;28;20146;-77
2024/02/28 00:34:18;;;;;;;22.13;12.00;;;;;;;9.77;50.36;95295.50;5008989;28;20412;-78
2024/02/28 00:36:43;;;;;;;23.73;12.82;;;;;;;9.77;50.24;95297.47;5009639;28;20573;-79
2024/02/28 00:39:10;;;;;;;18.70;11.57;;;;;;;9.73;50.52;95294.00;5008919;28;20038;-77
2024/02/28 00:41:36;;;;;;;22.70;11.73;;;;;;;9.71;50.57;95296.41;5009826;28;20396;-77
2024/02/28 00:44:02;;;;;;;19.40;11.20;;;;;;;9.66;50.64;95294.16;5009456;28;20411;-78
2024/02/28 00:46:28;;;;;;;20.90;11.65;;;;;;;9.55;50.90;95299.84;5008507;28;20583;-78
2024/02/28 00:48:53;;;;;;;24.15;11.43;;;;;;;9.56;50.96;95295.91;5009881;28;20120;-78
2024/02/28 00:51:18;;;;;;;20.15;12.02;;;;;;;9.56;51.16;95293.94;5008666;28;20025;-78
2024/02/28 00:53:44;;;;;;;17.90;11.05;;;;;;;9.48;51.22;95294.50;5009612;28;20109;-79
2024/02/28 00:56:09;;;;;;;16.60;11.15;;;;;;;9.49;51.19;95301.53;5008988;28;20117;-78
2024/02/28 00:58:35;;;;;;;15.40;9.75;;;;;;;9.48;51.22;95300.75;5009735;28;20069;-78
2024/02/28 01:01:00;;;;;;;20.25;10.80;;;;;;;9.48;51.09;95303.50;5008719;28;20029;-77
2024/02/28 01:03:25;;;;;;;19.58;10.50;;;;;;;9.42;50.88;95287.94;5008655;28;20030;-79
2024/02/28 01:05:51;;;;;;;18.20;10.90;;;;;;;9.45;51.40;95309.81;5009843;28;20036;-79
2024/02/28 01:08:19;;;;;;;21.13;11.70;;;;;;;9.39;51.91;95310.72;5009272;28;20030;-77
2024/02/28 01:10:45;;;;;;;16.90;10.60;;;;;;;9.25;52.05;95304.31;5016197;28;20030;-78
2024/02/28 01:13:11;;;;;;;15.82;10.18;;;;;;;9.17;52.07;95297.38;5013781;28;20073;-78
2024/02/28 01:15:40;;;;;;;18.67;10.23;;;;;;;9.14;52.14;95297.47;5009843;28;20026;-79
2024/02/28 01:18:05;;;;;;;18.48;11.32;;;;;;;9.25;51.91;95300.78;5009167;28;20042;-78
2024/02/28 01:20:31;;;;;;;17.25;9.70;;;;;;;9.27;51.73;95306.63;5008649;28;20022;-79
2024/02/28 01:22:56;;;;;;;15.80;9.77;;;;;;;9.21;52.00;95308.31;5008994;28;20030;-79
2024/02/28 01:25:22;;;;;;;16.95;9.38;;;;;;;9.20;52.05;95306.75;5008560;28;20668;-80
2024/02/28 01:27:47;;;;;;;16.15;10.52;;;;;;;9.20;52.01;95304.78;5009178;28;20029;-79
2024/02/28 01:30:12;;;;;;;16.98;9.32;;;;;;;9.21;52.13;95303.59;5008136;28;20026;-77
2024/02/28 01:32:38;;;;;;;14.02;9.00;;;;;;;9.15;52.03;95310.75;5008985;28;20029;-78
2024/02/28 01:35:04;;;;;;;16.08;9.13;;;;;;;9.21;51.97;95311.81;5008460;28;20105;-78
2024/02/28 01:37:29;;;;;;;17.17;9.70;;;;;;;9.12;52.27;95319.84;5008588;28;20026;-77
2024/02/28 01:39:55;;;;;;;16.48;9.00;;;;;;;9.11;52.26;95322.97;5008478;28;20037;-77
2024/02/28 01:42:20;;;;;;;16.50;10.05;;;;;;;9.11;52.18;95323.75;5008322;28;20064;-78
2024/02/28 01:44:48;;;;;;;16.75;9.98;;;;;;;9.02;52.65;95318.03;5008651;28;20018;-79
2024/02/28 01:47:13;;;;;;;14.52;9.05;;;;;;;9.06;52.55;95321.50;5007602;28;20092;-79
2024/02/28 01:49:39;;;;;;;15.27;10.00;;;;;;;8.99;52.92;95316.13;5008886;28;20026;-77
2024/02/28 01:52:05;;;;;;;17.65;8.55;;;;;;;9.02;52.63;95318.81;5008170;28;20112;-78
2024/02/28 01:54:31;;;;;;;15.77;9.20;;;;;;;9.05;52.55;95322.69;5008234;28;20116;-79
2024/02/28 01:56:57;;;;;;;16.27;9.00;;;;;;;8.98;52.70;95323.56;5008471;28;20022;-78
2024/02/28 01:59:24;;;;;;;14.88;9.18;;;;;;;8.98;53.04;95325.53;5005559;28;20468;-79
2024/02/28 02:01:50;;;;;;;15.32;10.20;;;;;;;9.00;52.72;95318.47;5007969;28;20045;-79
2024/02/28 02:04:16;;;;;;;16.13;9.30;;;;;;;9.02;52.85;95318.81;5007658;28;20057;-78
2024/02/28 02:06:43;;;;;;;17.30;9.52;;;;;;;9.07;52.67;95323.06;5008653;28;20212;-78
2024/02/28 02:09:08;;;;;;;15.25;9.20;;;;;;;9.03;52.56;95320.34;5007492;28;20080;-78
2024/02/28 02:11:34;;;;;;;16.10;9.05;;;;;;;9.01;52.81;95320.00;5007981;28;20038;-78
2024/02/28 02:13:59;;;;;;;16.30;9.75;;;;;;;9.00;52.68;95321.22;5007754;28;20026;-77
2024/02/28 02:16:26;;;;;;;16.58;9.27;;;;;;;8.93;52.92;95320.53;5007951;28;20061;-79
2024/02/28 02:18:52;;;;;;;14.95;9.65;;;;;;;8.97;52.95;95318.50;5007607;28;20034;-79
2024/02/28 02:21:25;;;;;;;14.18;8.82;;;;;;;8.90;53.09;95310.41;5007491;28;20413;-78
2024/02/28 02:23:51;;;;;;;;;;;;;;;8.75;53.70;95318.84;5007505;28;20120;-78
2024/02/28 02:26:16;;;;;;;18.33;9.77;;;;;;;8.61;53.85;95308.13;5007064;28;20407;-77
2024/02/28 02:28:41;;;;;;;16.60;9.38;;;;;;;8.65;53.97;95314.31;5022968;28;20045;-78
2024/02/28 02:31:07;;;;;;;15.75;9.52;;;;;;;8.67;53.81;95311.94;5007321;28;20061;-78
2024/02/28 02:33:32;;;;;;;18.55;10.52;;;;;;;8.75;53.83;95320.81;5007354;28;20079;-78
2024/02/28 02:35:57;;;;;;;18.42;10.60;;;;;;;8.80;53.36;95320.34;5007573;28;20060;-77
2024/02/28 02:38:23;;;;;;;18.23;11.43;;;;;;;8.78;53.51;95326.25;5007285;28;20499;-77
2024/02/28 02:40:49;;;;;;;16.42;10.73;;;;;;;8.69;53.97;95323.25;5007446;28;20026;-78
2024/02/28 02:43:15;;;;;;;19.00;10.90;;;;;;;8.76;53.75;95316.88;5006711;28;20033;-77
2024/02/28 02:45:40;;;;;;;14.85;9.88;;;;;;;8.75;53.67;95320.81;5007689;28;20040;-79
2024/02/28 02:48:06;;;;;;;19.90;10.35;;;;;;;8.74;53.60;95320.03;5006992;28;20074;-78
2024/02/28 02:50:31;;;;;;;17.67;10.02;;;;;;;8.75;53.67;95321.59;5007352;28;20037;-78
2024/02/28 02:52:56;;;;;;;16.88;9.52;;;;;;;8.76;53.60;95320.38;5007523;28;20018;-78
2024/02/28 02:55:22;;;;;;;16.50;9.98;;;;;;;8.82;53.62;95312.47;5007154;28;20409;-77
2024/02/28 02:57:47;;;;;;;15.73;10.65;;;;;;;8.78;53.60;95314.50;5007152;28;20030;-79
2024/02/28 03:00:13;;;;;;;17.05;10.80;;;;;;;8.76;53.61;95323.13;5006824;28;20400;-78
2024/02/28 03:02:39;;;;;;;15.77;9.75;;;;;;;8.76;53.58;95317.66;5007076;28;20041;-78
2024/02/28 03:05:05;;;;;;;18.73;10.60;;;;;;;8.74;53.93;95320.03;5006873;28;20369;-79
2024/02/28 03:07:30;;;;;;;18.25;10.50;;;;;;;8.71;54.43;95320.84;5007220;28;20026;-78
2024/02/28 03:09:56;;;;;;;18.13;10.85;;;;;;;8.78;54.10;95322.75;5008413;28;20118;-79
2024/02/28 03:12:21;;;;;;;19.98;11.27;;;;;;;8.78;54.15;95336.44;5013403;28;20485;-79
2024/02/28 03:14:48;;;;;;;16.42;10.48;;;;;;;8.73;54.37;95323.97;5013476;28;20033;-79
2024/02/28 03:17:15;;;;;;;17.85;10.88;;;;;;;8.74;54.39;95328.25;5013216;28;20033;-79
2024/02/28 03:19:40;;;;;;;21.98;10.75;;;;;;;8.72;54.40;95330.66;5013487;28;20110;-78
2024/02/28 03:22:06;;;;;;;21.25;12.00;;;;;;;8.71;54.55;95323.59;5013311;28;20100;-77
2024/02/28 03:24:31;;;;;;;17.10;11.45;;;;;;;8.69;54.42;95326.00;5013900;28;20445;-79
2024/02/28 03:26:56;;;;;;;24.73;12.85;;;;;;;8.71;54.20;95323.59;5012975;28;20069;-78
2024/02/28 03:29:22;;;;;;;22.27;11.93;;;;;;;8.63;54.79;95333.13;5013712;28;20037;-78
2024/02/28 03:31:47;;;;;;;20.50;11.80;;;;;;;8.52;55.30;95333.28;5013179;28;20468;-78
2024/02/28 03:34:13;;;;;;;25.08;12.95;;;;;;;8.52;55.39;95338.00;5012007;28;20022;-79
2024/02/28 03:36:38;;;;;;;20.63;12.50;;;;;;;8.52;55.36;95327.03;5013310;28;20030;-79
2024/02/28 03:39:04;;;;;;;21.55;12.60;;;;;;;8.48;55.70;95340.78;5013188;28;20037;-78
2024/02/28 03:41:29;;;;;;;20.33;12.00;;;;;;;8.50;55.54;95337.66;5013688;28;20033;-78
2024/02/28 03:43:54;;;;;;;21.52;12.93;;;;;;;8.44;55.79;95329.09;5012731;28;20500;-78
2024/02/28 03:46:21;;;;;;;23.15;12.38;;;;;;;8.43;55.73;95337.72;5013364;28;20033;-78
2024/02/28 03:48:46;;;;;;;20.73;12.23;;;;;;;8.46;55.63;95340.41;5012979;28;20049;-78
2024/02/28 03:51:12;;;;;;;20.55;12.07;;;;;;;8.42;55.68;95341.66;5013431;28;20160;-77
2024/02/28 03:53:37;;;;;;;21.27;12.38;;;;;;;8.45;55.64;95336.13;5013141;28;20018;-77
2024/02/28 03:56:03;;;;;;;16.52;11.13;;;;;;;8.45;55.66;95340.84;5013393;28;20022;-79
2024/02/28 03:58:28;;;;;;;21.38;12.63;;;;;;;8.39;55.88;95342.50;5012889;28;20021;-78
2024/02/28 04:00:54;;;;;;;21.27;12.05;;;;;;;8.36;55.96;95348.78;5012546;28;20108;-78
2024/02/28 04:03:19;;;;;;;19.20;13.20;;;;;;;8.29;56.33;95349.63;5013166;28;20030;-78
2024/02/28 04:05:45;;;;;;;21.13;12.77;;;;;;;8.32;56.16;95348.06;5012800;28;20506;-78
2024/02/28 04:08:10;;;;;;;19.48;11.48;;;;;;;8.35;55.74;95342.50;5028424;28;20481;-78
2024/02/28 04:10:36;;;;;;;20.60;11.32;;;;;;;8.33;55.71;95341.38;5012607;28;20471;-78
2024/02/28 04:13:01;;;;;;;20.15;12.05;;;;;;;8.30;55.76;95347.66;5013344;28;20547;-77
2024/02/28 04:15:27;;;;;;;18.35;12.45;;;;;;;8.38;55.44;95340.94;5012759;28;20117;-78
2024/02/28 04:17:52;;;;;;;21.05;12.93;;;;;;;8.38;55.33;95343.69;5013307;28;20037;-78
2024/02/28 04:20:18;;;;;;;23.63;12.48;;;;;;;8.29;55.46;95341.41;5013192;28;20018;-78
2024/02/28 04:22:43;;;;;;;22.08;11.95;;;;;;;8.25;55.94;95340.69;5009726;28;20072;-79
2024/02/28 04:25:09;;;;;;;23.10;13.20;;;;;;;8.18;56.31;95344.28;5010461;28;20026;-78
2024/02/28 04:27:38;;;;;;;21.20;12.82;;;;;;;8.21;56.27;95335.25;5009781;28;20037;-79
2024/02/28 04:30:04;;;;;;;27.17;15.30;;;;;;;8.22;56.29;95331.34;5010802;28;20022;-78
2024/02/28 04:32:30;;;;;;;22.90;13.60;;;;;;;8.24;56.55;95337.16;5014814;28;20034;-78
2024/02/28 04:34:55;;;;;;;26.13;14.32;;;;;;;8.22;56.23;95338.78;5016259;28;20037;-78
2024/02/28 04:37:21;;;;;;;21.92;13.85;;;;;;;8.17;56.69;95339.22;5011357;28;20033;-78
2024/02/28 04:39:46;;;;;;;22.05;13.48;;;;;;;8.20;56.46;95333.72;5009784;28;20033;-80
2024/02/28 04:42:12;;;;;;;24.38;13.30;;;;;;;8.21;56.15;95337.22;5010245;28;20018;-78
2024/02/28 04:44:38;;;;;;;21.10;13.30;;;;;;;8.25;56.23;95343.41;5008542;28;20037;-80
2024/02/28 04:47:04;;;;;;;20.10;12.73;;;;;;;8.25;56.08;95348.91;5009989;28;20022;-79
2024/02/28 04:49:29;;;;;;;24.80;14.40;;;;;;;8.17;56.40;95356.44;5008953;28;20088;-80
2024/02/28 04:51:55;;;;;;;19.92;12.50;;;;;;;8.18;56.17;95349.75;5008178;28;20113;-79
2024/02/28 04:54:20;;;;;;;26.02;14.77;;;;;;;8.22;56.18;95347.78;5009321;28;20036;-78
2024/02/28 04:56:46;;;;;;;26.90;13.13;;;;;;;8.16;56.52;95345.91;5009326;28;20421;-79
2024/02/28 04:59:12;;;;;;;26.33;14.35;;;;;;;8.14;56.53;95343.59;5009469;28;20458;-78
2024/02/28 05:01:42;;;;;;;22.40;13.75;;;;;;;8.14;56.52;95356.47;5008622;28;20077;-80
2024/02/28 05:04:08;;;;;;;24.67;14.40;;;;;;;8.03;56.54;95356.63;5009916;28;20069;-80
2024/02/28 05:06:33;;;;;;;22.08;15.10;;;;;;;7.98;56.78;95366.06;5008543;28;20540;-78
2024/02/28 05:08:59;;;;;;;33.50;15.93;;;;;;;7.97;57.29;95366.44;5008376;28;20155;-80
2024/02/28 05:11:24;;;;;;;23.20;14.57;;;;;;;8.00;56.85;95357.44;5008730;28;20045;-79
2024/02/28 05:13:49;;;;;;;30.00;14.20;;;;;;;8.00;56.91;95376.59;5009209;28;20064;-78
2024/02/28 05:16:16;;;;;;;28.83;15.18;;;;;;;7.91;57.20;95368.09;5009824;28;20400;-78
2024/02/28 05:18:41;;;;;;;23.75;14.63;;;;;;;8.02;57.32;95382.44;5006942;28;20040;-78
2024/02/28 05:21:07;;;;;;;22.27;14.00;;;;;;;7.94;57.62;95370.03;5009389;28;20025;-80
2024/02/28 05:23:32;;;;;;;28.95;14.80;;;;;;;7.98;57.30;95381.72;5008383;28;20028;-79
2024/02/28 05:26:03;;;;;;;24.20;14.27;;;;;;;8.04;56.93;95385.56;5009561;28;20032;-79
2024/02/28 05:28:29;;;;;;;26.42;15.88;;;;;;;8.07;56.98;95389.44;5008778;28;20036;-78
2024/02/28 05:30:54;;;;;;;28.80;14.98;;;;;;;8.07;56.83;95375.72;5009287;28;20416;-78
2024/02/28 05:33:19;;;;;;;25.73;15.40;;;;;;;8.10;56.92;95400.34;5008692;28;20033;-76
2024/02/28 05:35:45;;;;;;;26.73;15.18;;;;;;;8.06;57.12;95396.09;5008497;28;20030;-76
2024/02/28 05:38:10;;;;;;;23.65;14.15;;;;;;;8.06;56.91;95398.84;5008367;28;20117;-77
2024/02/28 05:40:35;;;;;;;25.08;15.63;;;;;;;8.04;56.95;95399.25;5007476;28;20084;-77
2024/02/28 05:43:01;;;;;;;23.40;15.68;;;;;;;8.06;56.79;95409.78;5008942;28;20030;-77
2024/02/28 05:45:27;;;;;;;27.08;15.05;;;;;;;7.92;57.30;95410.72;5008100;28;20049;-76
2024/02/28 05:47:52;;;;;;;25.77;14.65;;;;;;;7.96;57.61;95408.72;5008691;28;20018;-75
2024/02/28 05:50:18;;;;;;;33.58;14.82;;;;;;;8.05;57.03;95419.97;5008100;28;20046;-77
2024/02/28 05:52:43;;;;;;;31.50;15.40;;;;;;;8.06;56.97;95413.28;5008338;28;20092;-77
2024/02/28 05:55:08;;;;;;;27.42;15.85;;;;;;;8.08;56.96;95419.13;5008771;28;20049;-77
2024/02/28 05:57:34;;;;;;;32.88;16.63;;;;;;;8.10;57.26;95419.50;5007527;28;20483;-77
2024/02/28 05:59:59;;;;;;;24.77;14.73;;;;;;;8.11;57.02;95414.81;5008691;28;20500;-75
2024/02/28 06:02:25;;;;;;;26.70;16.17;;;;;;;8.15;56.97;95418.28;5007184;28;20477;-76
2024/02/28 06:04:50;;;;;;;24.25;15.27;;;;;;;8.27;56.83;95417.75;5008421;28;20125;-77
2024/02/28 06:07:16;;;;;;;29.45;16.20;;;;;;;8.18;57.43;95431.16;5007823;28;20476;-75
2024/02/28 06:09:41;;;;;;;25.98;17.63;;;;;;;8.24;57.26;95427.56;5008067;28;20018;-76
2024/02/28 06:12:06;;;;;;;31.70;16.10;;;;;;;8.23;57.63;95422.50;5005837;28;20535;-77
2024/02/28 06:14:32;;;;;;;29.75;16.55;;;;;;;8.29;57.59;95433.78;5005961;28;20026;-76
2024/02/28 06:16:57;;;;;;;31.00;15.43;;;;;;;8.30;57.70;95429.84;5007979;28;20026;-77
2024/02/28 06:19:23;;;;;;;29.58;15.25;;;;;;;8.46;57.49;95432.81;5006776;28;20121;-75
2024/02/28 06:21:48;;;;;;;23.83;15.88;;;;;;;8.60;57.21;95431.84;5008243;28;20038;-76
2024/02/28 06:24:13;;;;;;;22.45;15.52;;;;;;;8.67;57.08;95434.50;5007255;28;20408;-76
2024/02/28 06:26:39;;;;;;;34.38;17.98;;;;;;;8.68;57.12;95439.56;5007553;28;20026;-77
2024/02/28 06:29:06;;;;;;;35.70;18.95;;;;;;;8.77;57.86;95439.84;5007503;28;20057;-77
2024/02/28 06:31:32;;;;;;;33.53;19.38;;;;;;;8.86;58.03;95436.56;5007377;28;20021;-78
2024/02/28 06:33:57;;;;;;;46.55;23.48;;;;;;;8.97;58.56;95439.94;5007720;28;20401;-77
2024/02/28 06:36:22;;;;;;;44.38;22.95;;;;;;;8.97;58.93;95444.66;5007304;28;20026;-77
2024/02/28 06:38:48;;;;;;;41.17;24.58;;;;;;;8.97;59.33;95439.94;5007742;28;20028;-76
2024/02/28 06:41:13;;;;;;;33.65;22.90;;;;;;;9.04;59.06;95437.09;5006876;28;20457;-76
2024/02/28 06:43:39;;;;;;;42.17;24.52;;;;;;;9.04;59.26;95442.56;5007900;28;20022;-76
2024/02/28 06:46:04;;;;;;;43.90;26.35;;;;;;;9.11;59.23;95444.44;5006760;28;20528;-77
2024/02/28 06:48:30;;;;;;;44.67;26.90;;;;;;;9.22;58.84;95441.53;5007182;28;20100;-76
2024/02/28 06:50:56;;;;;;;48.72;30.27;;;;;;;9.31;58.62;95445.31;5022245;28;20030;-76
2024/02/28 06:53:21;;;;;;;46.63;30.58;;;;;;;9.35;58.54;95444.44;5007303;28;20022;-76
2024/02/28 06:55:48;;;;;;;47.90;31.92;;;;;;;9.39;58.22;95456.16;5007298;28;20034;-77
2024/02/28 06:58:14;;;;;;;47.55;30.83;;;;;;;9.46;58.01;95451.34;5006780;28;20026;-76
2024/02/28 07:00:39;;;;;;;45.17;26.42;;;;;;;9.53;57.62;95442.22;5007628;28;20030;-78
2024/02/28 07:03:05;;;;;;;38.20;26.05;;;;;;;9.64;57.37;95444.78;5006803;28;20117;-77
2024/02/28 07:05:30;;;;;;;41.42;25.05;;;;;;;9.67;57.19;95444.72;5008062;28;20022;-78
2024/02/28 07:07:55;;;;;;;40.42;25.20;;;;;;;9.69;57.04;95438.78;5007107;28;20029;-78
2024/02/28 07:10:21;;;;;;;39.58;23.50;;;;;;;9.82;56.84;95446.03;5007489;28;20480;-78
2024/02/28 07:12:46;;;;;;;37.95;24.23;;;;;;;9.79;56.68;95433.13;5007087;28;20539;-76
2024/02/28 07:15:11;;;;;;;39.83;21.77;;;;;;;9.96;56.36;95446.94;5007100;28;20051;-77
2024/02/28 07:17:37;;;;;;;44.53;22.45;;;;;;;10.10;56.13;95443.97;5007700;28;20041;-75
2024/02/28 07:20:02;;;;;;;42.97;23.35;;;;;;;10.21;55.83;95438.25;5006592;28;20160;-76
2024/02/28 07:22:28;;;;;;;31.90;20.63;;;;;;;10.31;55.64;95448.28;5007844;28;20021;-76
2024/02/28 07:24:53;;;;;;;37.25;20.45;;;;;;;10.34;55.74;95455.69;5006830;28;20073;-77
2024/02/28 07:27:18;;;;;;;36.13;19.02;;;;;;;10.40;55.65;95439.47;5007249;28;20022;-77
2024/02/28 07:29:44;;;;;;;31.23;19.13;;;;;;;10.55;55.50;95448.97;5007290;28;20105;-77
2024/02/28 07:32:09;;;;;;;37.95;20.02;;;;;;;10.66;55.22;95444.03;5005596;28;20034;-77
2024/02/28 07:34:35;;;;;;;34.28;20.17;;;;;;;10.76;55.18;95439.50;5006897;28;20033;-76
2024/02/28 07:37:00;;;;;;;34.92;20.73;;;;;;;10.88;54.88;95447.88;5006647;28;20026;-77
2024/02/28 07:39:27;;;;;;;34.15;20.23;;;;;;;10.99;54.50;95446.88;5007160;28;20037;-79
2024/02/28 07:41:52;;;;;;;30.80;19.77;;;;;;;11.13;54.37;95450.09;5006408;28;20491;-77
2024/02/28 07:44:18;;;;;;;28.75;19.20;;;;;;;11.22;54.06;95448.72;5007418;28;20057;-75
2024/02/28 07:46:44;;;;;;;29.00;17.25;;;;;;;11.28;53.89;95435.97;5006597;28;20410;-77
2024/02/28 07:49:10;;;;;;;28.60;17.52;;;;;;;11.54;53.60;95454.25;5006900;28;20046;-76
2024/02/28 07:51:36;;;;;;;31.98;16.65;;;;;;;11.76;53.15;95450.97;5007297;28;20057;-77
2024/02/28 07:54:02;;;;;;;29.38;17.10;;;;;;;11.92;52.77;95446.22;5007174;28;20463;-77
2024/02/28 07:56:28;;;;;;;28.58;16.90;;;;;;;12.12;52.40;95457.13;5007502;28;20456;-77
2024/02/28 07:58:54;;;;;;;29.67;15.25;;;;;;;12.36;51.94;95451.38;5009942;28;20026;-76
2024/02/28 08:01:21;;;;;;;25.98;16.00;;;;;;;12.62;51.27;95450.25;5012805;28;20026;-79
2024/02/28 08:03:46;;;;;;;25.65;16.05;;;;;;;12.84;50.82;95450.38;5009922;28;20034;-79
2024/02/28 08:06:12;;;;;;;27.25;17.08;;;;;;;13.10;50.37;95453.94;5010391;28;20025;-76
2024/02/28 08:08:37;;;;;;;30.55;18.23;;;;;;;13.29;49.83;95444.69;5009991;28;20026;-77
2024/02/28 08:11:03;;;;;;;28.73;17.15;;;;;;;13.56;49.23;95451.75;5010184;28;20057;-77
2024/02/28 08:13:28;;;;;;;22.77;15.60;;;;;;;13.92;48.18;95445.81;5010347;28;20564;-76
2024/02/28 08:15:54;;;;;;;31.15;17.20;;;;;;;14.15;47.71;95447.41;5009640;28;20038;-77
2024/02/28 08:18:20;;;;;;;27.77;16.25;;;;;;;14.42;46.82;95446.09;5010909;28;20108;-76
2024/02/28 08:20:45;;;;;;;29.00;16.55;;;;;;;14.70;46.63;95444.34;5009567;28;20472;-77
2024/02/28 08:23:10;;;;;;;27.27;16.30;;;;;;;15.00;44.94;95442.81;5010686;28;20037;-76
2024/02/28 08:25:36;;;;;;;25.13;15.05;;;;;;;15.15;44.87;95438.28;5009925;28;20037;-78
2024/02/28 08:28:01;;;;;;;27.02;17.95;;;;;;;15.38;44.37;95432.22;5010215;28;20416;-77
2024/02/28 08:30:26;;;;;;;25.17;16.23;;;;;;;15.61;43.93;95438.44;5010148;28;20064;-77
2024/02/28 08:32:52;;;;;;;24.80;16.92;;;;;;;15.76;43.57;95433.13;5009885;28;20480;-77
2024/02/28 08:35:20;;;;;;;26.15;17.38;;;;;;;15.84;43.21;95431.59;5010369;28;20022;-77
2024/02/28 08:37:45;;;;;;;26.02;17.00;;;;;;;15.98;42.71;95433.78;5009157;28;20061;-79
2024/02/28 08:40:12;;;;;;;25.85;17.35;;;;;;;16.19;42.21;95430.09;5010340;28;20528;-76
2024/02/28 08:42:37;;;;;;;22.30;15.85;;;;;;;16.55;41.79;95430.56;5009042;28;20044;-77
2024/02/28 08:45:03;;;;;;;28.45;16.45;;;;;;;16.90;40.82;95436.53;5009899;28;20025;-77
2024/02/28 08:47:29;;;;;;;24.38;16.55;;;;;;;17.16;40.39;95432.16;5009529;28;20109;-77
2024/02/28 08:49:54;;;;;;;26.77;17.13;;;;;;;17.55;39.21;95431.50;5009600;28;20033;-77
2024/02/28 08:52:20;;;;;;;28.70;17.92;;;;;;;17.92;38.35;95432.13;5009773;28;20030;-76
2024/02/28 08:54:47;;;;;;;26.52;16.90;;;;;;;18.24;37.67;95425.72;5009173;28;20079;-76
2024/02/28 08:57:13;;;;;;;24.83;16.48;;;;;;;18.52;37.32;95417.13;5009708;28;20428;-76
2024/02/28 08:59:39;;;;;;;26.70;15.70;;;;;;;18.99;37.00;95418.28;5008779;28;20538;-78
2024/02/28 09:02:05;;;;;;;25.55;15.60;;;;;;;19.34;35.41;95409.97;5009705;28;20056;-76
2024/02/28 09:04:31;;;;;;;23.95;15.35;;;;;;;19.77;34.87;95413.16;5008661;28;20057;-77
2024/02/28 09:06:56;;;;;;;21.42;15.35;;;;;;;20.27;33.81;95424.97;5009700;28;20029;-77
2024/02/28 09:09:21;;;;;;;21.45;14.75;;;;;;;20.91;32.49;95417.56;5023930;28;20025;-77
2024/02/28 09:11:47;;;;;;;18.38;14.00;;;;;;;21.54;32.00;95430.84;5008714;28;20527;-78
2024/02/28 09:14:12;;;;;;;23.50;13.23;;;;;;;22.11;30.66;95432.75;5009388;28;20234;-77
2024/02/28 09:16:38;;;;;;;21.48;14.10;;;;;;;22.65;29.48;95433.50;5008223;28;20076;-77
2024/02/28 09:19:04;;;;;;;22.50;15.18;;;;;;;22.66;29.48;95437.06;5009316;28;20071;-78
2024/02/28 09:21:29;;;;;;;20.67;16.33;;;;;;;22.69;29.28;95431.19;5008326;28;20075;-77
2024/02/28 09:23:55;;;;;;;22.63;14.80;;;;;;;22.60;29.27;95423.03;5008701;28;20031;-77
2024/02/28 09:26:20;;;;;;;21.25;14.65;;;;;;;22.94;28.91;95415.50;5008503;28;20121;-77
2024/02/28 09:28:45;;;;;;;23.30;14.73;;;;;;;23.16;28.45;95405.56;5008759;28;20033;-78
2024/02/28 09:31:11;;;;;;;20.20;13.07;;;;;;;23.25;28.41;95410.94;5008712;28;20477;-77
2024/02/28 09:33:36;;;;;;;22.58;13.77;;;;;;;23.42;27.83;95408.91;5008233;28;20115;-77
2024/02/28 09:36:03;;;;;;;22.98;13.00;;;;;;;23.40;27.94;95411.47;5009331;28;20032;-76
2024/02/28 09:38:29;;;;;;;18.85;11.95;;;;;;;23.98;27.14;95408.84;5006456;28;20034;-77
2024/02/28 09:40:54;;;;;;;18.33;12.10;;;;;;;24.41;26.56;95404.91;5009009;28;20033;-77
2024/02/28 09:43:29;;;;;;;17.40;10.98;;;;;;;25.10;25.79;95401.97;5008268;28;20404;-75
2024/02/28 09:46:04;;;;;;;14.50;10.10;;;;;;;25.68;25.01;95388.44;5008381;28;20076;-77
2024/02/28 09:48:30;;;;;;;17.67;10.85;;;;;;;25.94;24.47;95402.03;5008766;28;20026;-77
2024/02/28 09:51:00;;;;;;;16.90;10.75;;;;;;;26.36;24.27;95390.56;5006536;28;20543;-76
2024/02/28 09:53:26;;;;;;;20.33;11.75;;;;;;;26.66;23.80;95402.50;5007525;28;20033;-76
2024/02/28 09:55:52;;;;;;;16.45;11.05;;;;;;;26.08;23.90;95390.88;5007458;28;20038;-77
2024/02/28 09:58:18;;;;;;;17.42;10.82;;;;;;;25.54;24.83;95378.34;5007120;28;20037;-77
2024/02/28 10:00:45;;;;;;;17.00;10.30;;;;;;;25.07;25.20;95386.91;5007723;28;20026;-77
2024/02/28 10:03:12;;;;;;;14.85;10.18;;;;;;;24.61;25.95;95379.25;5007804;28;20025;-76
2024/02/28 10:05:38;;;;;;;17.85;12.13;;;;;;;24.15;26.46;95385.56;5006594;28;20461;-75
2024/02/28 10:08:05;;;;;;;16.73;10.98;;;;;;;23.62;27.08;95379.03;5007718;28;20467;-75
2024/02/28 10:10:31;;;;;;;14.15;10.27;;;;;;;22.87;28.04;95381.56;5008534;28;20112;-77
2024/02/28 10:12:57;;;;;;;13.93;9.80;;;;;;;22.40;28.55;95381.97;5007638;28;20500;-77
2024/02/28 10:15:22;;;;;;;17.55;10.90;;;;;;;22.19;29.11;95375.00;5008279;28;20028;-76
2024/02/28 10:17:48;;;;;;;18.02;11.18;;;;;;;21.86;29.28;95381.22;5007234;28;20397;-77
2024/02/28 10:20:14;;;;;;;16.60;11.10;;;;;;;21.30;30.04;95376.00;5007347;28;20026;-76
2024/02/28 10:22:39;;;;;;;14.75;10.32;;;;;;;21.08;30.17;95367.41;5007395;28;20029;-76
2024/02/28 10:25:05;;;;;;;15.10;10.95;;;;;;;21.12;30.42;95370.75;5007626;28;20030;-76
2024/02/28 10:27:34;;;;;;;15.00;9.98;;;;;;;20.92;30.58;95357.63;5008082;28;20025;-76
2024/02/28 10:30:04;;;;;;;16.88;9.82;;;;;;;21.08;30.75;95357.00;5007246;28;20037;-76
2024/02/28 10:32:30;;;;;;;15.98;9.82;;;;;;;21.53;29.97;95346.16;5008015;28;20036;-77
2024/02/28 10:34:57;;;;;;;15.55;10.75;;;;;;;22.17;29.17;95353.13;5006967;28;20029;-76
2024/02/28 10:37:23;;;;;;;17.05;10.32;;;;;;;22.52;28.69;95347.09;5006581;28;20045;-76
2024/02/28 10:39:49;;;;;;;15.95;10.40;;;;;;;22.73;28.32;95347.66;5006763;28;20409;-77
2024/02/28 10:42:15;;;;;;;18.33;11.25;;;;;;;24.39;26.19;95345.66;5007377;28;20032;-76
2024/02/28 10:44:41;;;;;;;14.93;10.10;;;;;;;26.05;24.12;95347.66;5007645;28;20057;-77
2024/02/28 10:47:08;;;;;;;18.75;10.32;;;;;;;27.37;22.74;95335.56;5005463;28;20460;-77
2024/02/28 10:49:33;;;;;;;13.43;9.18;;;;;;;28.52;21.79;95333.13;5007976;28;20484;-77
2024/02/28 10:51:59;;;;;;;12.48;9.35;;;;;;;29.77;20.57;95324.00;5005138;28;20061;-76
2024/02/28 10:54:25;;;;;;;13.98;9.32;;;;;;;30.60;19.38;95337.13;5008150;28;20028;-77
2024/02/28 10:56:51;;;;;;;12.25;9.77;;;;;;;31.66;18.26;95333.00;5005432;28;20420;-77
2024/02/28 10:59:17;;;;;;;12.65;10.00;;;;;;;32.70;17.00;95330.34;5005839;28;20030;-76
2024/02/28 11:01:43;;;;;;;13.73;10.00;;;;;;;33.49;16.14;95328.78;5006911;28;20495;-77
2024/02/28 11:04:13;;;;;;;14.52;8.93;;;;;;;34.43;15.59;95322.41;5006642;28;20601;-78
2024/02/28 11:06:55;;;;;;;18.05;9.35;;;;;;;34.64;15.04;95321.22;5007214;28;20091;-75
2024/02/28 11:09:28;;;;;;;14.45;8.90;;;;;;;34.48;14.62;95314.94;5006697;28;20477;-78
2024/02/28 11:11:53;;;;;;;13.15;7.93;;;;;;;35.52;14.27;95314.69;5007072;28;20045;-79
2024/02/28 11:14:24;;;;;;;14.52;8.30;;;;;;;36.36;13.53;95314.00;5007280;28;20014;-76
2024/02/28 11:17:03;;;;;;;11.63;8.18;;;;;;;36.82;13.36;95306.59;5007554;28;20026;-77